createdAt,value
2022-12-31T00:03:30.164Z,77987.16
2022-12-31T00:10:34.391Z,77999.41
2022-12-31T00:17:36.352Z,77997.38
2022-12-31T00:24:38.402Z,77995.34
2022-12-31T00:31:40.396Z,77997.38
2022-12-31T00:38:44.620Z,77993.28
2022-12-31T00:45:46.670Z,77978.97
2022-12-31T00:52:48.671Z,77964.66
2022-12-31T00:59:50.607Z,77940.13
2022-12-31T01:06:52.750Z,77919.69
2022-12-31T01:14:12.304Z,77895.16
2022-12-31T01:21:15.065Z,77876.75
2022-12-31T01:28:17.068Z,77850.19
2022-12-31T01:35:19.400Z,77837.91
2022-12-31T01:42:21.482Z,77831.78
2022-12-31T01:49:41.505Z,77805.19
2022-12-31T01:56:44.171Z,77780.66
2022-12-31T02:03:46.227Z,77778.63
2022-12-31T02:10:48.239Z,77764.31
2022-12-31T02:18:05.364Z,77762.25
2022-12-31T02:25:47.686Z,77752.03
2022-12-31T02:33:37.772Z,77739.78
2022-12-31T02:40:40.254Z,77721.38
2022-12-31T02:48:00.366Z,77709.13
2022-12-31T02:55:02.420Z,77719.34
2022-12-31T03:02:19.750Z,77702.97
2022-12-31T03:09:21.881Z,77717.28
2022-12-31T03:16:23.829Z,77721.38
2022-12-31T03:23:37.623Z,77709.13
2022-12-31T03:30:42.697Z,77698.88
2022-12-31T03:37:44.718Z,77709.13
2022-12-31T03:44:46.811Z,77711.16
2022-12-31T03:51:48.893Z,77702.97
2022-12-31T03:58:51.094Z,77690.72
2022-12-31T04:05:56.537Z,77684.59
2022-12-31T04:13:00.554Z,77674.34
2022-12-31T04:20:03.262Z,77645.75
2022-12-31T04:27:07.746Z,77633.47
2022-12-31T04:34:10.154Z,77625.28
2022-12-31T04:41:17.900Z,77621.22
2022-12-31T04:48:20.075Z,77608.94
2022-12-31T04:55:22.100Z,77598.72
2022-12-31T05:02:24.160Z,77586.47
2022-12-31T05:09:27.802Z,77574.19
2022-12-31T05:16:29.851Z,77559.88
2022-12-31T05:23:32.111Z,77559.88
2022-12-31T05:30:34.124Z,77555.78
2022-12-31T05:37:36.198Z,77551.69
2022-12-31T05:44:38.155Z,77551.69
2022-12-31T05:51:40.119Z,77539.44
2022-12-31T05:58:42.042Z,77535.34
2022-12-31T06:05:44.071Z,77529.22
2022-12-31T06:12:50.602Z,77531.25
2022-12-31T06:19:52.803Z,77531.25
2022-12-31T06:26:54.803Z,77527.16
2022-12-31T06:33:56.937Z,77525.13
2022-12-31T06:40:58.885Z,77523.09
2022-12-31T06:48:00.860Z,77516.94
2022-12-31T06:55:03.216Z,77510.81
2022-12-31T07:02:26.006Z,77512.88
2022-12-31T07:09:46.649Z,77537.38
2022-12-31T07:17:03.947Z,77531.25
2022-12-31T07:24:10.589Z,77535.34
2022-12-31T07:31:22.377Z,77547.63
2022-12-31T07:38:45.748Z,77539.44
2022-12-31T07:45:55.680Z,77549.66
2022-12-31T07:52:57.951Z,77545.56
2022-12-31T08:00:12.103Z,77533.31
2022-12-31T08:07:29.155Z,77523.09
2022-12-31T08:14:31.573Z,77502.63
2022-12-31T08:21:49.451Z,77504.69
2022-12-31T08:29:00.858Z,77500.59
2022-12-31T08:36:12.744Z,77500.59
2022-12-31T08:43:15.004Z,77482.19
2022-12-31T08:50:18.816Z,77476.06
2022-12-31T08:57:45.534Z,77457.66
2022-12-31T09:05:15.497Z,77443.34
2022-12-31T09:12:35.574Z,77416.78
2022-12-31T09:19:37.836Z,77408.59
2022-12-31T09:26:58.471Z,77396.34
2022-12-31T09:34:12.468Z,77371.81
2022-12-31T09:41:46.953Z,77341.16
2022-12-31T09:49:16.541Z,77326.84
2022-12-31T09:56:27.588Z,77312.53
2022-12-31T10:04:06.959Z,77300.25
2022-12-31T10:11:31.216Z,77288.00
2022-12-31T10:18:33.307Z,77273.69
2022-12-31T10:25:53.170Z,77238.94
2022-12-31T10:33:00.721Z,77232.81
2022-12-31T10:40:15.838Z,77218.50
2022-12-31T10:47:37.075Z,77200.09
2022-12-31T10:55:06.803Z,77179.66
2022-12-31T11:02:21.054Z,77151.03
2022-12-31T11:09:34.381Z,77138.78
2022-12-31T11:16:54.046Z,77108.13
2022-12-31T11:24:09.255Z,77081.53
2022-12-31T11:31:23.378Z,77059.06
2022-12-31T11:38:26.671Z,77061.09
2022-12-31T11:46:22.598Z,77042.72
2022-12-31T11:53:45.481Z,77034.53
2022-12-31T12:00:57.637Z,77016.13
2022-12-31T12:07:59.664Z,77007.97
2022-12-31T12:15:08.472Z,77014.09
2022-12-31T12:22:21.157Z,76983.44
2022-12-31T12:29:24.736Z,76963.00
2022-12-31T12:36:26.674Z,76967.09
2022-12-31T12:43:36.796Z,76954.81
2022-12-31T12:50:47.772Z,76952.78
2022-12-31T12:57:52.804Z,76948.69
2022-12-31T13:05:15.810Z,76936.41
2022-12-31T13:13:04.861Z,76950.72
2022-12-31T13:20:07.685Z,76963.00
2022-12-31T13:27:12.575Z,76973.22
2022-12-31T13:34:30.781Z,76958.91
2022-12-31T13:41:32.893Z,76975.25
2022-12-31T13:48:59.132Z,76987.53
2022-12-31T13:56:04.082Z,76989.56
2022-12-31T14:03:31.250Z,76977.31
2022-12-31T14:10:41.908Z,76979.34
2022-12-31T14:17:46.914Z,76973.22
2022-12-31T14:24:52.778Z,76973.22
2022-12-31T14:32:06.765Z,76979.34
2022-12-31T14:39:33.691Z,76963.00
2022-12-31T14:46:56.872Z,76958.91
2022-12-31T14:53:59.428Z,76954.81
2022-12-31T15:01:19.313Z,76944.59
2022-12-31T15:08:41.396Z,76938.47
2022-12-31T15:15:51.964Z,76936.41
2022-12-31T15:22:54.665Z,76938.47
2022-12-31T15:29:56.900Z,76930.28
2022-12-31T15:37:01.270Z,76899.63
2022-12-31T15:44:12.211Z,76893.50
2022-12-31T15:51:23.584Z,76877.16
2022-12-31T15:58:30.497Z,76871.00
2022-12-31T16:05:35.403Z,76862.84
2022-12-31T16:12:44.347Z,76854.66
2022-12-31T16:19:47.552Z,76844.44
2022-12-31T16:26:52.221Z,76840.34
2022-12-31T16:34:04.863Z,76807.66
2022-12-31T16:41:15.449Z,76779.03
2022-12-31T16:48:19.112Z,76744.28
2022-12-31T16:55:26.201Z,76730.00
2022-12-31T17:02:36.950Z,76721.81
2022-12-31T17:09:40.063Z,76713.63
2022-12-31T17:16:45.049Z,76695.25
2022-12-31T17:23:53.951Z,76676.84
2022-12-31T17:31:00.618Z,76654.38
2022-12-31T17:38:21.456Z,76666.63
2022-12-31T17:45:23.682Z,76664.59
2022-12-31T17:52:25.809Z,76670.72
2022-12-31T17:59:30.851Z,76664.59
2022-12-31T18:06:32.935Z,76644.16
2022-12-31T18:13:35.434Z,76652.31
2022-12-31T18:20:37.402Z,76646.19
2022-12-31T18:27:42.193Z,76631.88
2022-12-31T18:34:44.226Z,76635.97
2022-12-31T18:41:49.814Z,76625.75
2022-12-31T18:48:52.170Z,76635.97
2022-12-31T18:55:56.383Z,76640.06
2022-12-31T19:02:58.585Z,76629.84
2022-12-31T19:10:00.832Z,76635.97
2022-12-31T19:24:03.792Z,76611.44
2022-12-31T19:31:06.118Z,76601.22
2022-12-31T19:38:18.443Z,76599.19
2022-12-31T19:45:26.083Z,76570.56
2022-12-31T19:52:28.263Z,76576.69
2022-12-31T19:59:30.267Z,76570.56
2022-12-31T20:06:32.320Z,76570.56
2022-12-31T20:13:35.761Z,76570.56
2022-12-31T20:20:37.741Z,76584.88
2022-12-31T20:27:39.899Z,76584.88
2022-12-31T20:34:41.948Z,76574.66
2022-12-31T20:41:43.929Z,76580.78
2022-12-31T20:48:46.532Z,76584.88
2022-12-31T20:55:48.677Z,76580.78
2022-12-31T21:03:00.249Z,76570.56
2022-12-31T21:10:09.040Z,76544.00
2022-12-31T21:17:11.095Z,76539.91
2022-12-31T21:24:13.304Z,76550.13
2022-12-31T21:31:16.747Z,76548.09
2022-12-31T21:38:19.084Z,76541.97
2022-12-31T21:45:21.111Z,76535.81
2022-12-31T21:52:31.875Z,76525.59
2022-12-31T22:00:09.307Z,76537.88
2022-12-31T22:07:14.390Z,76537.88
2022-12-31T22:14:16.472Z,76544.00
2022-12-31T22:21:23.610Z,76537.88
2022-12-31T22:28:41.119Z,76517.44
2022-12-31T22:35:45.704Z,76517.44
2022-12-31T22:42:47.859Z,76519.47
2022-12-31T22:49:50.044Z,76535.81
2022-12-31T22:56:52.165Z,76531.75
2022-12-31T23:03:55.200Z,76531.75
2022-12-31T23:11:01.441Z,76533.78
2022-12-31T23:18:22.286Z,76521.53
2022-12-31T23:25:24.334Z,76525.59
2022-12-31T23:32:26.353Z,76535.81
2022-12-31T23:39:28.901Z,76527.66
2022-12-31T23:46:31.114Z,76509.25
2022-12-31T23:53:33.185Z,76501.09
